Time;durP1;ratioP1;P1;durP2;ratioP2;P2;SDS_P1;SDS_P2;PMS_P1;PMS_P2;Temp;Humidity;BMP_temperature;BMP_pressure;BME280_temperature;BME280_humidity;BME280_pressure;Samples;Min_cycle;Max_cycle;Signal;HPM_P1;HPM_P2
2021/09/09 00:01:52;;;;;;;24.07;9.47;;;;;;;11.40;63.46;101472.84;126340;1099;104139;-78
2021/09/09 00:04:23;;;;;;;22.40;9.10;;;;;;;11.31;63.46;101475.95;126315;1099;104201;-77
2021/09/09 00:06:54;;;;;;;25.20;10.10;;;;;;;11.26;63.61;101480.06;126259;1099;104223;-77
2021/09/09 00:09:25;;;;;;;26.07;10.30;;;;;;;11.20;64.08;101484.13;126326;1099;104569;-78
2021/09/09 00:11:57;;;;;;;22.17;10.40;;;;;;;11.15;63.85;101481.27;126349;1099;104159;-79
2021/09/09 00:14:28;;;;;;;25.47;10.23;;;;;;;11.08;64.52;101484.41;126253;1099;104149;-77
2021/09/09 00:16:59;;;;;;;25.73;10.40;;;;;;;11.01;64.39;101477.96;126266;1099;104152;-79
2021/09/09 00:19:31;;;;;;;22.27;9.70;;;;;;;10.95;64.28;101477.66;126349;1097;104592;-78
2021/09/09 00:22:05;;;;;;;22.40;9.10;;;;;;;10.91;64.76;101473.99;126283;1099;104139;-78
2021/09/09 00:24:38;;;;;;;22.67;10.10;;;;;;;10.88;64.45;101473.84;126337;1099;104198;-78
2021/09/09 00:27:09;;;;;;;24.93;9.60;;;;;;;10.84;64.66;101477.13;126268;1099;105633;-78
2021/09/09 00:29:41;;;;;;;21.97;9.83;;;;;;;10.82;64.45;101476.16;126304;1099;105385;-78
2021/09/09 00:32:12;;;;;;;23.93;9.77;;;;;;;10.79;64.67;101471.64;126343;1099;104672;-78
2021/09/09 00:34:43;;;;;;;21.17;9.63;;;;;;;10.76;64.73;101476.73;126344;1099;104236;-77
2021/09/09 00:37:15;;;;;;;23.50;9.73;;;;;;;10.79;65.96;101476.89;126159;1099;104184;-77
2021/09/09 00:39:45;;;;;;;22.87;9.13;;;;;;;10.77;65.14;101472.41;126236;1099;104410;-78
2021/09/09 00:42:17;;;;;;;22.87;9.37;;;;;;;10.74;65.59;101470.52;126200;1099;104312;-78
2021/09/09 00:44:47;;;;;;;23.57;10.33;;;;;;;10.71;65.68;101474.72;126216;1099;104881;-78
2021/09/09 00:47:18;;;;;;;20.93;9.70;;;;;;;10.67;65.43;101470.13;126177;1099;104281;-78
2021/09/09 00:49:48;;;;;;;24.77;9.60;;;;;;;10.57;66.10;101469.66;126234;1099;104297;-78
2021/09/09 00:52:19;;;;;;;21.50;9.63;;;;;;;10.54;65.78;101473.86;126224;1099;104329;-78
2021/09/09 00:54:50;;;;;;;24.17;9.37;;;;;;;10.51;65.16;101474.59;126214;1099;104190;-79
2021/09/09 00:57:23;;;;;;;19.90;9.25;;;;;;;10.50;66.27;101477.13;126212;1099;104307;-79
2021/09/09 00:59:56;;;;;;;21.27;9.33;;;;;;;10.48;65.87;101468.29;126132;1099;112041;-77
2021/09/09 01:02:26;;;;;;;21.23;9.23;;;;;;;10.45;65.90;101478.63;126218;1099;104187;-78
2021/09/09 01:04:57;;;;;;;23.03;10.63;;;;;;;10.43;66.31;101474.19;126209;1099;104258;-78
2021/09/09 01:07:28;;;;;;;24.20;10.20;;;;;;;10.39;66.43;101473.95;126224;1099;104259;-79
2021/09/09 01:10:01;;;;;;;23.77;9.47;;;;;;;10.32;66.63;101475.33;126228;1099;104226;-78
2021/09/09 01:12:31;;;;;;;21.73;9.30;;;;;;;10.29;66.38;101471.66;126194;1099;104166;-77
2021/09/09 01:15:02;;;;;;;21.83;8.73;;;;;;;10.27;66.66;101468.95;126324;1099;104230;-79
2021/09/09 01:17:33;;;;;;;22.40;9.57;;;;;;;10.25;67.13;101471.50;126297;1099;104346;-78
2021/09/09 01:20:05;;;;;;;23.50;9.80;;;;;;;10.22;66.79;101466.09;126252;1099;104172;-78
2021/09/09 01:22:36;;;;;;;20.93;9.70;;;;;;;10.18;66.67;101465.84;126357;1099;104178;-77
2021/09/09 01:25:08;;;;;;;20.83;8.67;;;;;;;10.14;66.72;101461.25;126320;1099;104252;-78
2021/09/09 01:27:39;;;;;;;19.50;8.80;;;;;;;10.11;67.39;101458.46;126343;1099;104136;-78
2021/09/09 01:30:11;;;;;;;20.83;8.93;;;;;;;10.07;67.30;101460.92;126271;1099;104153;-79
2021/09/09 01:32:41;;;;;;;21.67;9.40;;;;;;;10.04;67.55;101458.14;126315;1098;104358;-78
2021/09/09 01:35:12;;;;;;;21.23;9.40;;;;;;;10.01;66.76;101460.59;126309;1099;104155;-78
2021/09/09 01:37:44;;;;;;;24.40;9.83;;;;;;;10.00;67.22;101463.13;126299;1097;104249;-78
2021/09/09 01:40:15;;;;;;;21.13;9.00;;;;;;;9.99;67.59;101454.37;126313;1097;104162;-78
2021/09/09 01:42:46;;;;;;;19.40;8.70;;;;;;;9.96;67.14;101451.59;126338;1099;104309;-78
2021/09/09 01:45:16;;;;;;;21.80;8.90;;;;;;;9.94;66.82;101449.70;125269;1099;104258;-78
2021/09/09 01:47:47;;;;;;;21.13;9.17;;;;;;;9.92;67.53;101454.86;125299;1099;104414;-78
2021/09/09 01:50:18;;;;;;;18.80;8.90;;;;;;;9.93;67.33;101453.16;125238;1099;104325;-78
2021/09/09 01:52:49;;;;;;;18.80;8.77;;;;;;;9.91;67.70;101447.84;125299;1099;104259;-77
2021/09/09 01:55:19;;;;;;;21.70;9.30;;;;;;;9.92;68.04;101443.48;125284;1099;104208;-79
2021/09/09 01:57:50;;;;;;;20.77;9.80;;;;;;;9.88;67.24;101442.42;125250;1099;104444;-78
2021/09/09 02:00:21;;;;;;;24.40;9.23;;;;;;;9.87;67.48;101443.23;125250;1099;104188;-78
2021/09/09 02:02:51;;;;;;;21.93;8.90;;;;;;;9.84;68.10;101441.34;125352;1099;104156;-78
2021/09/09 02:05:22;;;;;;;24.70;8.93;;;;;;;9.81;67.89;101445.52;126363;1099;104162;-78
2021/09/09 02:07:53;;;;;;;18.93;8.63;;;;;;;9.79;68.59;101441.93;126351;1099;104189;-78
2021/09/09 02:10:25;;;;;;;20.00;8.67;;;;;;;9.76;68.60;101447.00;126256;1099;104142;-79
2021/09/09 02:12:55;;;;;;;22.30;9.00;;;;;;;9.70;68.37;101455.42;126368;1099;104707;-78
2021/09/09 02:15:28;;;;;;;19.63;8.13;;;;;;;9.64;68.40;101441.98;126320;1099;104194;-78
2021/09/09 02:17:58;;;;;;;21.43;8.80;;;;;;;9.59;67.93;101444.36;126286;1099;104166;-77
2021/09/09 02:20:30;;;;;;;20.83;8.40;;;;;;;9.57;68.53;101448.62;126275;1099;104338;-78
2021/09/09 02:23:01;;;;;;;22.07;8.33;;;;;;;9.55;68.37;101452.85;126361;1099;104738;-78
2021/09/09 02:25:31;;;;;;;22.57;8.70;;;;;;;9.55;68.39;101452.85;126317;1099;104137;-79
2021/09/09 02:28:02;;;;;;;18.87;8.60;;;;;;;9.56;69.11;101451.16;126293;1099;104149;-78
2021/09/09 02:30:33;;;;;;;19.70;8.77;;;;;;;9.53;68.52;101457.12;126307;1099;104172;-78
2021/09/09 02:33:07;;;;;;;20.20;9.07;;;;;;;9.51;69.12;101449.17;126300;1099;104150;-77
2021/09/09 02:35:38;;;;;;;20.17;8.13;;;;;;;9.47;68.50;101446.30;126282;1099;104165;-78
2021/09/09 02:38:09;;;;;;;17.50;8.13;;;;;;;9.45;68.66;101456.69;126355;1099;104159;-77
2021/09/09 02:40:40;;;;;;;17.63;8.17;;;;;;;9.45;68.56;101450.56;126259;1099;104290;-78
2021/09/09 02:43:11;;;;;;;22.93;8.63;;;;;;;9.46;68.37;101455.00;126325;1099;104152;-77
2021/09/09 02:45:41;;;;;;;21.13;8.57;;;;;;;9.47;68.99;101446.30;126353;1099;104156;-78
2021/09/09 02:48:12;;;;;;;23.30;9.30;;;;;;;9.46;68.83;101450.65;126304;1099;104258;-78
2021/09/09 02:50:43;;;;;;;20.27;9.07;;;;;;;9.42;69.27;101459.14;126276;1098;104268;-77
2021/09/09 02:53:14;;;;;;;20.37;8.73;;;;;;;9.38;69.12;101451.02;126311;1098;104172;-78
2021/09/09 02:55:44;;;;;;;23.73;9.57;;;;;;;9.32;69.10;101454.22;126323;1099;104182;-78
2021/09/09 02:58:15;;;;;;;20.27;8.37;;;;;;;9.30;69.41;101456.77;126323;1098;104260;-78
2021/09/09 03:00:46;;;;;;;20.30;8.17;;;;;;;9.27;68.94;101456.59;126231;1099;104185;-77
2021/09/09 03:03:16;;;;;;;19.60;8.75;;;;;;;9.22;70.19;101464.98;126265;1099;104143;-78
2021/09/09 03:05:47;;;;;;;20.63;9.00;;;;;;;9.19;69.70;101460.47;126307;1098;104220;-79
2021/09/09 03:08:19;;;;;;;21.13;8.83;;;;;;;9.18;69.28;101464.81;126309;1099;104142;-78
2021/09/09 03:10:50;;;;;;;21.60;9.67;;;;;;;9.20;69.95;101461.39;126247;1099;104249;-78
2021/09/09 03:13:21;;;;;;;19.40;9.27;;;;;;;9.18;70.00;101463.92;126295;1099;104172;-78
2021/09/09 03:15:52;;;;;;;21.15;9.55;;;;;;;9.15;69.43;101468.98;126342;1099;104178;-78
2021/09/09 03:18:22;;;;;;;20.90;9.23;;;;;;;9.10;69.84;101465.18;126314;1099;104156;-77
2021/09/09 03:20:54;;;;;;;20.37;9.07;;;;;;;9.07;70.32;101463.31;126276;1099;104208;-77
2021/09/09 03:23:25;;;;;;;24.87;9.80;;;;;;;9.06;70.36;101466.73;126357;1099;101901;-79
2021/09/09 03:25:56;;;;;;;17.67;8.40;;;;;;;9.04;69.81;101462.20;126282;1099;104140;-77
2021/09/09 03:28:27;;;;;;;23.17;9.53;;;;;;;9.03;70.12;101466.55;126259;1099;104201;-79
2021/09/09 03:30:58;;;;;;;21.90;9.27;;;;;;;9.05;70.05;101467.53;126266;1099;104166;-79
2021/09/09 03:33:28;;;;;;;27.07;9.53;;;;;;;9.06;70.01;101471.08;126298;1099;104169;-79
2021/09/09 03:35:59;;;;;;;23.93;9.43;;;;;;;9.00;70.48;101467.27;126355;1099;104183;-78
2021/09/09 03:38:29;;;;;;;26.97;9.77;;;;;;;8.95;70.73;101468.73;126288;1099;104576;-78
2021/09/09 03:41:00;;;;;;;29.55;9.70;;;;;;;8.88;70.89;101477.06;126291;1099;104261;-78
2021/09/09 03:43:33;;;;;;;21.93;9.47;;;;;;;8.84;70.07;101477.69;126283;1099;104277;-77
2021/09/09 03:46:04;;;;;;;21.80;9.18;;;;;;;8.81;70.18;101472.27;126342;1099;104147;-79
2021/09/09 03:48:36;;;;;;;22.03;9.03;;;;;;;8.84;70.51;101471.56;126259;1099;104240;-78
2021/09/09 03:51:06;;;;;;;19.20;8.80;;;;;;;8.84;70.53;101475.06;126294;1099;104334;-78
2021/09/09 03:53:37;;;;;;;19.03;8.57;;;;;;;8.86;71.02;101472.54;126326;1099;104171;-78
2021/09/09 03:56:08;;;;;;;21.17;9.23;;;;;;;8.85;70.90;101475.95;126235;1099;104197;-79
2021/09/09 03:58:39;;;;;;;25.60;10.27;;;;;;;8.85;70.84;101471.65;126337;1099;104149;-78
2021/09/09 04:01:13;;;;;;;22.85;8.90;;;;;;;8.88;71.13;101479.68;126304;1099;104220;-78
2021/09/09 04:03:46;;;;;;;24.27;9.30;;;;;;;8.91;71.07;101471.08;126238;1099;107608;-78
2021/09/09 04:06:17;;;;;;;23.67;9.40;;;;;;;8.97;70.42;101484.52;126349;1099;104137;-79
2021/09/09 04:08:47;;;;;;;22.77;8.77;;;;;;;9.09;71.17;101480.00;126284;1099;104261;-79
2021/09/09 04:11:18;;;;;;;25.20;9.30;;;;;;;9.21;70.99;101482.43;126332;1099;104233;-78
2021/09/09 04:13:49;;;;;;;21.97;9.57;;;;;;;9.22;70.80;101486.83;126287;1099;119920;-78
2021/09/09 04:16:19;;;;;;;23.53;9.50;;;;;;;9.21;71.37;101479.81;126261;1098;104325;-77
2021/09/09 04:18:50;;;;;;;24.33;9.67;;;;;;;9.21;70.67;101473.64;126282;1099;104165;-77
2021/09/09 04:21:20;;;;;;;21.17;9.20;;;;;;;9.26;70.66;101470.48;126234;1099;104628;-78
2021/09/09 04:23:51;;;;;;;26.73;9.30;;;;;;;9.30;70.58;101468.93;126259;1099;104198;-78
2021/09/09 04:26:21;;;;;;;23.60;9.27;;;;;;;9.32;71.38;101473.45;126321;1099;104192;-78
2021/09/09 04:28:52;;;;;;;21.27;8.27;;;;;;;9.33;70.71;101477.89;126302;1099;104143;-79
2021/09/09 04:31:23;;;;;;;21.47;9.47;;;;;;;9.33;70.88;101476.96;126337;1099;104205;-78
2021/09/09 04:33:56;;;;;;;19.40;8.93;;;;;;;9.32;70.82;101476.07;126242;1099;104299;-78
2021/09/09 04:36:27;;;;;;;22.77;8.85;;;;;;;9.27;70.91;101482.78;126354;1099;104130;-78
2021/09/09 04:38:58;;;;;;;20.50;9.07;;;;;;;9.25;71.32;101478.26;126340;1096;104281;-78
2021/09/09 04:41:29;;;;;;;21.87;9.03;;;;;;;9.23;71.28;101485.13;126275;1099;104323;-79
2021/09/09 04:44:00;;;;;;;19.10;8.27;;;;;;;9.21;71.56;101479.81;126196;1098;104213;-77
2021/09/09 04:46:32;;;;;;;24.97;8.97;;;;;;;9.23;71.79;101480.79;126286;1099;104300;-77
2021/09/09 04:49:03;;;;;;;19.67;8.27;;;;;;;9.29;71.20;101486.38;126367;1099;104147;-78
2021/09/09 04:51:34;;;;;;;21.90;8.93;;;;;;;9.31;71.78;101479.49;126235;1099;104222;-77
2021/09/09 04:54:08;;;;;;;24.30;9.97;;;;;;;9.29;71.73;101477.63;126138;1099;104222;-78
2021/09/09 04:56:39;;;;;;;23.97;9.70;;;;;;;9.28;72.10;101468.84;126341;1097;104245;-77
2021/09/09 04:59:10;;;;;;;18.87;8.30;;;;;;;9.31;71.35;101479.49;126290;1099;104191;-78
2021/09/09 05:01:41;;;;;;;25.35;9.75;;;;;;;9.33;71.64;101475.27;126321;1099;104252;-78
2021/09/09 05:04:11;;;;;;;18.97;8.60;;;;;;;9.35;71.54;101476.25;126212;1097;104150;-77
2021/09/09 05:06:42;;;;;;;25.40;9.37;;;;;;;9.41;71.91;101474.77;126242;1099;104172;-77
2021/09/09 05:09:12;;;;;;;27.90;9.83;;;;;;;9.45;71.81;101480.27;126222;1099;104303;-77
2021/09/09 05:11:43;;;;;;;23.83;9.50;;;;;;;9.53;71.73;101481.59;126139;1099;104245;-78
2021/09/09 05:14:14;;;;;;;21.90;9.40;;;;;;;9.59;71.50;101473.17;126192;1099;105040;-77
2021/09/09 05:16:44;;;;;;;26.30;9.70;;;;;;;9.64;71.71;101482.19;126249;1099;104276;-77
2021/09/09 05:19:15;;;;;;;22.70;9.30;;;;;;;9.73;71.76;101480.91;126147;1099;104431;-77
2021/09/09 05:21:46;;;;;;;25.17;9.40;;;;;;;9.80;71.99;101485.65;126256;1099;104169;-77
2021/09/09 05:24:16;;;;;;;21.00;9.20;;;;;;;9.86;71.86;101473.80;126166;1099;104143;-78
2021/09/09 05:26:47;;;;;;;21.43;9.87;;;;;;;9.94;72.11;101482.08;126258;1099;104169;-78
2021/09/09 05:29:18;;;;;;;23.45;9.65;;;;;;;10.01;71.83;101478.95;126207;1098;104279;-78
2021/09/09 05:31:48;;;;;;;23.10;10.33;;;;;;;10.08;72.01;101478.47;126163;1099;104338;-77
2021/09/09 05:34:19;;;;;;;25.07;9.57;;;;;;;10.17;71.61;101483.28;126049;1099;104696;-77
2021/09/09 05:36:50;;;;;;;25.73;9.93;;;;;;;10.26;72.21;101475.90;126179;1099;104168;-76
2021/09/09 05:39:22;;;;;;;20.33;9.40;;;;;;;10.34;71.41;101471.09;126196;1099;104226;-76
2021/09/09 05:41:54;;;;;;;23.30;9.20;;;;;;;10.45;71.41;101470.76;126269;1099;104149;-76
2021/09/09 05:44:25;;;;;;;24.50;9.10;;;;;;;10.55;71.59;101473.02;126097;1099;104153;-78
2021/09/09 05:47:00;;;;;;;26.70;10.40;;;;;;;10.64;71.51;101472.59;126175;1099;104171;-77
2021/09/09 05:49:33;;;;;;;23.93;9.63;;;;;;;10.72;71.99;101468.63;126131;1099;105456;-77
2021/09/09 05:52:09;;;;;;;29.73;9.77;;;;;;;10.79;71.48;101471.64;125999;1099;104409;-77
2021/09/09 05:54:43;;;;;;;24.10;8.20;;;;;;;10.90;71.79;101468.66;126044;1099;104267;-77
2021/09/09 05:57:14;;;;;;;26.50;8.73;;;;;;;11.02;71.67;101471.90;126117;1099;104267;-77
2021/09/09 05:59:47;;;;;;;22.70;8.70;;;;;;;11.14;71.63;101466.33;126077;1099;104236;-79
2021/09/09 06:02:19;;;;;;;23.90;9.83;;;;;;;11.25;71.92;101473.03;126178;1099;104137;-78
2021/09/09 06:04:51;;;;;;;26.63;9.40;;;;;;;11.36;71.44;101470.92;126055;1099;104197;-76
2021/09/09 06:07:25;;;;;;;23.90;8.93;;;;;;;11.46;71.40;101472.25;126219;1099;104359;-77
2021/09/09 06:09:56;;;;;;;22.30;9.13;;;;;;;11.55;71.22;101472.69;126242;1099;104241;-78
2021/09/09 06:12:50;;;;;;;22.80;8.53;;;;;;;11.63;71.41;101466.05;126089;1099;104281;-76
2021/09/09 06:18:17;;;;;;;32.83;9.07;;;;;;;11.81;71.33;101463.39;125817;1099;104194;-77
2021/09/09 06:20:49;;;;;;;21.33;8.97;;;;;;;11.92;71.00;101463.92;126209;1098;104150;-76
2021/09/09 06:23:20;;;;;;;24.50;8.63;;;;;;;12.05;70.89;101465.36;125831;1099;104153;-78
2021/09/09 06:25:53;;;;;;;23.90;9.00;;;;;;;12.15;70.86;101467.55;125860;1098;104281;-76
2021/09/09 06:28:31;;;;;;;20.37;8.13;;;;;;;12.28;70.86;101462.84;126018;1099;104150;-76
2021/09/09 06:31:07;;;;;;;24.93;8.30;;;;;;;12.41;71.12;101466.08;126119;1099;104265;-77
2021/09/09 06:33:38;;;;;;;25.97;8.07;;;;;;;12.54;71.10;101466.61;126156;1099;104137;-76
2021/09/09 06:36:08;;;;;;;26.00;8.30;;;;;;;12.66;70.67;101459.23;126031;1099;104165;-76
2021/09/09 06:38:40;;;;;;;22.10;8.00;;;;;;;12.79;70.47;101467.66;126087;1099;104169;-75
2021/09/09 06:41:11;;;;;;;27.77;9.53;;;;;;;12.89;70.32;101465.48;125837;1099;104319;-76
2021/09/09 06:43:42;;;;;;;28.50;9.33;;;;;;;13.04;70.05;101459.03;125952;1099;104232;-77
2021/09/09 06:46:17;;;;;;;22.30;7.83;;;;;;;13.16;70.09;101459.54;126060;1099;104181;-77
2021/09/09 06:48:51;;;;;;;23.77;7.80;;;;;;;13.31;69.37;101457.52;126177;1099;104331;-77
2021/09/09 06:51:24;;;;;;;26.55;8.10;;;;;;;13.48;69.89;101454.70;126151;1098;104146;-77
2021/09/09 06:53:57;;;;;;;22.50;7.43;;;;;;;13.63;69.38;101450.02;126100;1099;104261;-78
2021/09/09 06:56:29;;;;;;;21.80;7.67;;;;;;;13.83;68.47;101455.13;126242;1099;104070;-78
2021/09/09 06:59:06;;;;;;;20.50;7.87;;;;;;;14.00;68.45;101458.41;126232;1099;104143;-78
2021/09/09 07:01:40;;;;;;;21.27;8.40;;;;;;;14.16;68.37;101459.86;126215;1099;104146;-78
2021/09/09 07:04:10;;;;;;;27.13;8.20;;;;;;;14.29;67.96;101455.91;126034;1099;104245;-76
2021/09/09 07:06:41;;;;;;;25.53;8.83;;;;;;;14.47;66.94;101456.56;126090;1099;104236;-76
2021/09/09 07:09:13;;;;;;;23.30;8.80;;;;;;;14.62;66.95;101458.89;126064;1099;104207;-76
2021/09/09 07:11:43;;;;;;;26.93;9.20;;;;;;;14.80;66.94;101463.87;126180;1098;104197;-75
2021/09/09 07:14:15;;;;;;;28.80;8.87;;;;;;;14.96;67.49;101464.39;126217;1099;104184;-75
2021/09/09 07:16:46;;;;;;;26.57;8.83;;;;;;;15.09;67.40;101472.78;126127;1099;104194;-75
2021/09/09 07:19:18;;;;;;;31.23;8.83;;;;;;;15.21;67.19;101469.66;126128;1099;104193;-77
2021/09/09 07:21:50;;;;;;;29.83;9.30;;;;;;;15.36;66.99;101458.64;126274;1099;104172;-76
2021/09/09 07:24:22;;;;;;;23.57;8.70;;;;;;;15.53;66.54;101471.52;126238;1097;104260;-76
2021/09/09 07:26:54;;;;;;;;;;;;;;;15.71;65.41;101466.78;126117;1098;104191;-75
2021/09/09 07:29:25;;;;;;;28.03;9.00;;;;;;;15.93;65.17;101464.81;126170;1099;104168;-75
2021/09/09 07:31:57;;;;;;;30.37;10.47;;;;;;;16.13;65.26;101463.63;125329;1099;104149;-78
2021/09/09 07:34:29;;;;;;;26.20;9.53;;;;;;;16.31;64.85;101462.34;126224;1099;104226;-78
2021/09/09 07:37:04;;;;;;;33.43;9.07;;;;;;;16.47;64.31;101463.64;126219;1099;104166;-77
2021/09/09 07:39:35;;;;;;;25.57;9.28;;;;;;;16.65;64.63;101452.65;126230;1099;104249;-77
2021/09/09 07:42:08;;;;;;;23.07;8.30;;;;;;;16.79;64.06;101459.19;126330;1098;104172;-78
2021/09/09 07:44:40;;;;;;;28.27;9.10;;;;;;;16.97;62.87;101445.55;126306;1099;104222;-77
2021/09/09 07:47:13;;;;;;;27.50;8.97;;;;;;;17.21;62.52;101444.34;126190;1099;104241;-77
2021/09/09 07:49:47;;;;;;;31.13;9.30;;;;;;;17.35;61.52;101439.36;126219;1099;104226;-78
2021/09/09 07:52:19;;;;;;;26.85;9.83;;;;;;;17.53;61.46;101442.43;126210;1099;104278;-76
2021/09/09 07:54:51;;;;;;;26.27;9.13;;;;;;;17.67;61.29;101439.16;125964;1099;104165;-77
2021/09/09 07:57:24;;;;;;;24.53;8.77;;;;;;;17.75;60.82;101435.82;126097;1099;104210;-77
2021/09/09 07:59:59;;;;;;;19.98;8.08;;;;;;;17.89;60.97;101436.14;126274;1099;104204;-77
2021/09/09 08:02:31;;;;;;;25.77;9.40;;;;;;;17.99;60.70;101433.67;126285;1099;104149;-77
2021/09/09 08:05:09;;;;;;;28.53;8.07;;;;;;;18.11;60.68;101439.23;126234;1099;104146;-75
2021/09/09 08:07:45;;;;;;;23.27;8.10;;;;;;;18.24;60.43;101435.05;125634;1099;104284;-76
2021/09/09 08:10:19;;;;;;;25.43;8.10;;;;;;;18.35;59.98;101435.25;126270;1099;104162;-77
2021/09/09 08:12:50;;;;;;;25.15;8.03;;;;;;;18.41;59.07;101433.59;126268;1099;104185;-76
2021/09/09 08:15:23;;;;;;;26.67;8.23;;;;;;;18.58;58.45;101439.22;126099;1099;104296;-76
2021/09/09 08:17:57;;;;;;;20.43;7.92;;;;;;;18.73;58.18;101438.60;126110;1099;104152;-77
2021/09/09 08:20:28;;;;;;;21.70;7.93;;;;;;;18.85;57.08;101428.21;125313;1099;104284;-77
2021/09/09 08:23:00;;;;;;;23.57;7.83;;;;;;;18.99;57.41;101423.08;126011;1099;104163;-79
2021/09/09 08:25:36;;;;;;;22.60;7.70;;;;;;;19.09;57.48;101418.83;126021;1099;104169;-78
2021/09/09 08:28:11;;;;;;;19.33;7.80;;;;;;;19.19;55.97;101409.20;125874;1099;104262;-77
2021/09/09 08:30:43;;;;;;;21.07;7.97;;;;;;;19.26;55.25;101411.09;125852;1099;104134;-77
2021/09/09 08:33:15;;;;;;;19.80;7.62;;;;;;;19.38;53.99;101413.94;125934;1099;104185;-77
2021/09/09 08:35:49;;;;;;;22.85;7.05;;;;;;;19.51;54.08;101407.00;126175;1099;104224;-78
2021/09/09 08:38:23;;;;;;;15.03;5.70;;;;;;;19.70;52.82;101410.79;126165;1099;104226;-77
2021/09/09 08:40:55;;;;;;;15.55;5.35;;;;;;;19.86;53.29;101403.02;126187;1099;104238;-76
2021/09/09 08:43:27;;;;;;;22.30;5.83;;;;;;;19.97;53.33;101403.15;126209;1099;104299;-77
2021/09/09 08:46:04;;;;;;;13.83;5.60;;;;;;;20.04;52.56;101400.58;126229;1099;104171;-77
2021/09/09 08:48:38;;;;;;;15.70;6.03;;;;;;;20.14;52.17;101398.89;126264;1099;104136;-77
2021/09/09 08:51:09;;;;;;;11.87;5.53;;;;;;;20.19;50.80;101398.95;126216;1099;104284;-76
2021/09/09 08:53:44;;;;;;;15.87;5.50;;;;;;;20.23;49.84;101384.78;126168;1099;104136;-76
2021/09/09 08:56:17;;;;;;;13.67;4.87;;;;;;;20.33;49.07;101391.09;126205;1099;104239;-77
2021/09/09 08:58:51;;;;;;;15.03;4.87;;;;;;;20.47;48.99;101376.11;126002;1099;104191;-76
2021/09/09 09:01:26;;;;;;;8.77;4.37;;;;;;;20.57;49.40;101385.07;126250;1099;104267;-78
2021/09/09 09:04:01;;;;;;;11.53;4.90;;;;;;;20.73;48.65;101375.48;126278;1099;104236;-78
2021/09/09 09:06:37;;;;;;;16.13;5.03;;;;;;;20.88;48.03;101377.35;126289;1097;104158;-78
2021/09/09 09:09:14;;;;;;;11.93;4.30;;;;;;;20.97;46.59;101382.75;126194;1099;105502;-78
2021/09/09 09:11:49;;;;;;;15.17;4.67;;;;;;;21.01;47.66;101374.78;126225;1099;104272;-78
2021/09/09 09:14:25;;;;;;;17.75;4.80;;;;;;;21.08;47.27;101375.70;125354;1099;104112;-80
2021/09/09 09:17:01;;;;;;;15.03;4.70;;;;;;;21.17;46.49;101373.09;125273;1099;104319;-80
2021/09/09 09:19:40;;;;;;;13.17;4.70;;;;;;;21.22;45.33;101374.91;125489;1099;104220;-75
2021/09/09 09:22:14;;;;;;;13.73;4.63;;;;;;;21.29;46.60;101374.07;125730;1099;104143;-75
2021/09/09 09:24:52;;;;;;;15.47;4.70;;;;;;;21.31;44.66;101369.63;125181;1102;104159;-76
2021/09/09 09:27:26;;;;;;;12.10;4.10;;;;;;;21.39;44.63;101370.55;125235;1099;104326;-78
2021/09/09 09:30:07;;;;;;;14.60;4.47;;;;;;;21.43;44.04;101371.47;125891;1099;104174;-77
2021/09/09 09:32:48;;;;;;;13.10;4.47;;;;;;;21.49;43.89;101367.08;125894;1099;104197;-77
2021/09/09 09:35:21;;;;;;;10.27;3.67;;;;;;;21.56;43.08;101359.09;125289;1099;104332;-77
2021/09/09 09:37:56;;;;;;;11.88;3.60;;;;;;;21.62;42.68;101368.02;125874;1099;104176;-78
2021/09/09 09:40:42;;;;;;;8.03;3.50;;;;;;;21.69;42.91;101358.23;125919;1099;110902;-79
2021/09/09 09:43:25;;;;;;;11.90;4.17;;;;;;;21.69;41.10;101352.89;125818;1099;104300;-78
2021/09/09 09:46:08;;;;;;;;;;;;;;;21.77;39.07;101353.83;125631;1099;104225;-77
2021/09/09 09:48:45;;;;;;;10.93;4.40;;;;;;;21.85;41.96;101344.05;126081;1099;104137;-79
2021/09/09 09:51:43;;;;;;;9.47;4.10;;;;;;;21.93;41.68;101345.86;126107;1099;104137;-76
2021/09/09 09:54:24;;;;;;;9.27;4.17;;;;;;;22.03;40.51;101348.56;126307;1099;104137;-78
2021/09/09 09:56:58;;;;;;;12.53;4.67;;;;;;;22.14;40.73;101348.55;126305;1099;104165;-78
2021/09/09 09:59:32;;;;;;;13.93;4.50;;;;;;;22.19;39.87;101336.10;125965;1098;104290;-76
2021/09/09 10:02:09;;;;;;;10.03;4.80;;;;;;;22.23;39.60;101336.98;126080;1099;104165;-77
2021/09/09 10:04:45;;;;;;;10.00;4.90;;;;;;;22.29;39.56;101336.11;126038;1099;104159;-76
2021/09/09 10:07:28;;;;;;;9.80;4.70;;;;;;;22.37;38.96;101337.91;125983;1099;104280;-77
2021/09/09 10:09:59;;;;;;;14.93;4.95;;;;;;;22.41;38.86;101330.80;126056;1097;104271;-76
2021/09/09 10:12:32;;;;;;;13.73;5.10;;;;;;;22.44;38.76;101328.13;125863;1099;105634;-77
2021/09/09 10:15:07;;;;;;;13.90;4.87;;;;;;;22.47;38.06;101325.45;125946;1098;104274;-76
2021/09/09 10:17:57;;;;;;;13.87;5.20;;;;;;;22.50;36.71;101321.87;125783;1099;104139;-78
2021/09/09 10:20:40;;;;;;;15.93;5.07;;;;;;;22.57;37.58;101321.86;125856;1099;104322;-76
2021/09/09 10:23:17;;;;;;;14.87;5.20;;;;;;;22.60;37.44;101310.28;125933;1099;104146;-77
2021/09/09 10:25:53;;;;;;;12.57;5.57;;;;;;;22.60;36.98;101307.61;126043;1099;104252;-78
2021/09/09 10:28:45;;;;;;;13.60;4.90;;;;;;;22.67;36.49;101306.69;125967;1098;104155;-79
2021/09/09 10:31:24;;;;;;;12.93;4.87;;;;;;;22.74;36.91;101300.44;125865;1099;104351;-78
2021/09/09 10:34:08;;;;;;;11.40;5.27;;;;;;;22.80;36.17;101307.58;125925;1097;104152;-80
2021/09/09 10:36:48;;;;;;;13.13;5.33;;;;;;;22.84;36.30;101298.63;125908;1099;104200;-80
2021/09/09 10:39:45;;;;;;;16.40;5.30;;;;;;;22.91;36.40;101300.41;125910;1099;104293;-78
2021/09/09 10:42:40;;;;;;;17.37;4.93;;;;;;;22.99;35.98;101295.03;125820;1099;108179;-78
2021/09/09 10:46:00;;;;;;;10.57;4.93;;;;;;;23.04;35.85;101295.90;125928;1099;104329;-77
2021/09/09 10:48:34;;;;;;;10.90;4.73;;;;;;;23.01;35.75;101287.87;126135;1099;104159;-78
2021/09/09 10:51:09;;;;;;;14.07;4.90;;;;;;;23.03;35.62;101285.20;126046;1099;104190;-79
2021/09/09 10:54:09;;;;;;;14.87;5.00;;;;;;;23.05;35.32;101278.08;125967;1099;104204;-80
2021/09/09 10:56:44;;;;;;;14.27;4.90;;;;;;;23.06;35.58;101285.19;126014;1098;104447;-80
2021/09/09 10:59:21;;;;;;;9.40;4.43;;;;;;;23.04;34.55;101282.52;126100;1099;104165;-78
2021/09/09 11:01:54;;;;;;;11.23;4.77;;;;;;;23.04;34.64;101277.16;125950;1099;105746;-77
2021/09/09 11:04:37;;;;;;;14.70;4.93;;;;;;;23.07;34.85;101268.25;126146;1099;104329;-79
2021/09/09 11:07:22;;;;;;;14.10;4.73;;;;;;;23.12;34.98;101269.14;126238;1099;104140;-78
2021/09/09 11:10:07;;;;;;;9.83;4.80;;;;;;;23.10;34.64;101265.59;126055;1099;104153;-78
2021/09/09 11:12:53;;;;;;;12.83;5.20;;;;;;;23.08;32.89;101267.36;126159;1098;104326;-77
2021/09/09 11:15:34;;;;;;;13.30;5.03;;;;;;;23.04;33.61;101262.91;126235;1099;104216;-76
2021/09/09 11:18:08;;;;;;;13.05;5.00;;;;;;;23.08;33.89;101257.56;126297;1099;104246;-77
2021/09/09 11:20:40;;;;;;;12.47;5.00;;;;;;;23.13;33.10;101252.20;126142;1099;104252;-77
2021/09/09 11:23:14;;;;;;;10.00;4.77;;;;;;;23.11;32.25;101252.20;126280;1099;104188;-78
2021/09/09 11:25:48;;;;;;;10.80;4.67;;;;;;;23.19;32.71;101245.91;126053;1099;104980;-76
2021/09/09 11:28:20;;;;;;;12.90;4.90;;;;;;;23.28;32.62;101243.19;126073;1099;104229;-77
2021/09/09 11:31:11;;;;;;;11.80;4.77;;;;;;;23.32;32.58;101240.48;126118;1099;104147;-79
2021/09/09 11:33:58;;;;;;;13.80;4.90;;;;;;;23.23;31.31;101229.82;126142;1099;104181;-77
2021/09/09 11:36:33;;;;;;;16.00;5.47;;;;;;;23.30;31.90;101230.70;126238;1099;104149;-78